Time;durP1;ratioP1;P1;durP2;ratioP2;P2;SDS_P1;SDS_P2;PMS_P1;PMS_P2;Temp;Humidity;BMP_temperature;BMP_pressure;BME280_temperature;BME280_humidity;BME280_pressure;Samples;Min_cycle;Max_cycle;Signal;HPM_P1;HPM_P2
2023/07/02 00:01:21;;;;;;;8.88;4.50;;;;;;;18.34;89.70;93965.28;5129463;27;20205;-74
2023/07/02 00:03:49;;;;;;;12.25;5.28;;;;;;;18.38;89.82;93960.59;5120476;27;20261;-74
2023/07/02 00:06:17;;;;;;;7.72;4.45;;;;;;;18.41;89.47;93971.56;5111232;27;20201;-74
2023/07/02 00:08:44;;;;;;;10.63;5.43;;;;;;;18.37;89.37;93954.34;5124723;27;20211;-74
2023/07/02 00:11:12;;;;;;;10.80;5.10;;;;;;;18.33;89.59;93956.28;5125861;27;20193;-74
2023/07/02 00:13:39;;;;;;;8.55;4.70;;;;;;;18.38;89.71;93966.09;5109036;27;20198;-74
2023/07/02 00:16:06;;;;;;;9.75;5.00;;;;;;;18.34;89.84;93966.06;5121596;27;20193;-74
2023/07/02 00:18:34;;;;;;;9.40;5.30;;;;;;;18.21;89.79;93953.94;5130487;27;20318;-74
2023/07/02 00:21:03;;;;;;;10.48;4.50;;;;;;;18.17;89.58;93950.44;5112487;27;20276;-74
2023/07/02 00:23:30;;;;;;;7.72;4.80;;;;;;;18.11;89.85;93941.03;5107283;27;20203;-74
2023/07/02 00:25:57;;;;;;;8.52;4.60;;;;;;;18.06;91.17;93947.69;5125669;27;20205;-74
2023/07/02 00:28:24;;;;;;;8.13;4.28;;;;;;;18.10;91.39;93942.19;5131253;27;20197;-74
2023/07/02 00:30:50;;;;;;;8.20;4.55;;;;;;;18.05;91.30;93953.53;5117001;27;20208;-74
2023/07/02 00:33:17;;;;;;;8.73;4.70;;;;;;;17.97;91.38;93957.47;5115974;27;20194;-74
2023/07/02 00:35:44;;;;;;;11.63;5.40;;;;;;;17.82;91.86;93955.88;5115852;27;20213;-73
2023/07/02 00:38:12;;;;;;;13.00;5.40;;;;;;;17.85;92.07;93966.06;5106733;27;20275;-74
2023/07/02 00:40:39;;;;;;;12.00;5.40;;;;;;;17.72;92.75;93969.19;5114756;27;20250;-74
2023/07/02 00:43:06;;;;;;;7.45;4.40;;;;;;;17.65;93.53;93974.63;5116748;27;20226;-74
2023/07/02 00:45:32;;;;;;;9.90;5.22;;;;;;;17.60;94.60;93966.78;5113651;27;20202;-74
2023/07/02 00:47:59;;;;;;;13.07;4.78;;;;;;;17.48;95.29;93969.91;5113942;27;20281;-74
2023/07/02 00:50:27;;;;;;;14.23;5.00;;;;;;;17.58;95.55;93974.59;5126225;27;20196;-73
2023/07/02 00:52:55;;;;;;;8.45;4.35;;;;;;;17.64;95.41;93981.28;5124575;27;20205;-73
2023/07/02 00:55:23;;;;;;;11.05;5.00;;;;;;;17.62;95.91;93975.41;5109299;27;20202;-73
2023/07/02 00:57:50;;;;;;;10.05;5.07;;;;;;;17.68;95.78;93973.88;5117064;27;20576;-73
2023/07/02 01:00:17;;;;;;;7.85;4.78;;;;;;;17.79;95.26;93962.13;5128054;27;20197;-73
2023/07/02 01:02:58;;;;;;;7.93;4.35;;;;;;;17.83;95.33;93957.47;5116753;27;20201;-74
2023/07/02 01:05:26;;;;;;;11.13;4.40;;;;;;;17.84;95.17;93956.28;5109440;27;20310;-74
2023/07/02 01:07:53;;;;;;;9.70;4.43;;;;;;;17.74;96.35;93958.63;5121614;27;20205;-73
2023/07/02 01:10:19;;;;;;;8.40;5.03;;;;;;;17.79;96.30;93962.13;5129454;27;20648;-74
2023/07/02 01:12:49;;;;;;;7.93;4.65;;;;;;;17.86;96.11;93965.69;5115673;27;20257;-73
2023/07/02 01:15:16;;;;;;;8.20;4.28;;;;;;;17.90;95.71;93973.91;5107944;27;20199;-73
2023/07/02 01:17:43;;;;;;;8.90;4.35;;;;;;;18.05;95.30;93980.97;5103825;27;20751;-73
2023/07/02 01:20:13;;;;;;;8.02;4.63;;;;;;;17.97;94.57;93973.91;5117684;27;20201;-73
2023/07/02 01:22:40;;;;;;;8.13;4.40;;;;;;;18.05;94.76;93972.72;5101490;28;20561;-73
2023/07/02 01:25:08;;;;;;;19.08;5.30;;;;;;;17.70;95.40;93973.47;5118512;27;20199;-73
2023/07/02 01:27:36;;;;;;;9.02;4.68;;;;;;;17.80;96.05;93974.66;5123429;27;20579;-73
2023/07/02 01:30:04;;;;;;;9.48;4.78;;;;;;;17.92;95.22;93966.06;5123978;27;20284;-73
2023/07/02 01:32:31;;;;;;;8.15;4.18;;;;;;;17.74;96.41;93944.94;5119117;27;20211;-73
2023/07/02 01:34:58;;;;;;;9.05;5.00;;;;;;;17.77;97.60;93937.13;5120702;27;20655;-74
2023/07/02 01:37:26;;;;;;;9.40;5.05;;;;;;;17.87;97.29;93955.50;5115694;27;20259;-73
2023/07/02 01:39:53;;;;;;;12.80;5.70;;;;;;;17.97;96.66;93952.00;5107700;27;20248;-73
2023/07/02 01:42:21;;;;;;;10.73;5.22;;;;;;;17.93;96.54;93945.72;5119933;27;20252;-73
2023/07/02 01:44:51;;;;;;;12.73;5.05;;;;;;;17.96;96.44;93945.72;5123952;27;20285;-74
2023/07/02 01:47:19;;;;;;;9.73;5.10;;;;;;;17.87;97.39;93925.38;5114996;27;20734;-74
2023/07/02 01:49:46;;;;;;;9.77;5.53;;;;;;;17.91;99.12;93942.56;5124059;27;20201;-73
2023/07/02 01:52:13;;;;;;;12.75;6.03;;;;;;;17.90;99.53;93935.56;5121001;27;20197;-73
2023/07/02 01:54:41;;;;;;;11.20;5.03;;;;;;;17.78;100.00;93939.44;5116194;27;20197;-74
2023/07/02 01:57:08;;;;;;;16.48;6.25;;;;;;;17.53;100.00;93922.94;5119033;27;20198;-74
2023/07/02 01:59:35;;;;;;;11.80;6.50;;;;;;;17.35;100.00;93930.34;5099949;27;20224;-75
2023/07/02 02:02:02;;;;;;;11.10;5.95;;;;;;;17.24;100.00;93926.78;5118825;27;20197;-74
2023/07/02 02:04:29;;;;;;;9.50;5.25;;;;;;;17.17;100.00;93916.59;5107622;27;20235;-73
2023/07/02 02:06:55;;;;;;;10.13;5.53;;;;;;;17.08;100.00;93913.47;5118451;27;20732;-72
2023/07/02 02:09:23;;;;;;;10.70;6.05;;;;;;;17.03;100.00;93922.81;5114768;27;20204;-73
2023/07/02 02:11:52;;;;;;;11.60;5.30;;;;;;;17.07;100.00;93933.78;5118581;27;20259;-73
2023/07/02 02:14:19;;;;;;;15.07;5.88;;;;;;;17.10;100.00;93938.47;5111175;27;20670;-73
2023/07/02 02:16:46;;;;;;;12.00;6.10;;;;;;;16.96;100.00;93939.19;5117544;27;20215;-73
2023/07/02 02:19:14;;;;;;;10.68;5.63;;;;;;;17.01;100.00;93925.16;5122063;27;20236;-73
2023/07/02 02:21:41;;;;;;;11.38;5.93;;;;;;;17.16;100.00;93922.47;5105394;28;20202;-73
2023/07/02 02:24:08;;;;;;;9.32;5.88;;;;;;;17.08;100.00;93912.69;5114791;27;20197;-73
2023/07/02 02:26:35;;;;;;;11.70;6.47;;;;;;;17.02;100.00;93913.03;5111043;28;20198;-73
2023/07/02 02:29:03;;;;;;;11.60;6.45;;;;;;;16.86;100.00;93907.09;5109596;28;20217;-74
2023/07/02 02:31:30;;;;;;;10.23;5.72;;;;;;;16.89;100.00;93916.50;5109097;28;20198;-73
2023/07/02 02:33:57;;;;;;;10.20;5.82;;;;;;;16.84;100.00;93925.84;5115083;28;20217;-73
2023/07/02 02:36:24;;;;;;;12.82;6.22;;;;;;;16.81;100.00;93914.91;5123273;28;20196;-73
2023/07/02 02:38:51;;;;;;;14.07;5.72;;;;;;;16.80;100.00;93914.13;5113785;28;20232;-75
2023/07/02 02:41:17;;;;;;;12.95;6.03;;;;;;;16.75;100.00;93905.50;5106222;28;20602;-72
2023/07/02 02:43:44;;;;;;;10.65;5.35;;;;;;;16.76;100.00;93901.59;5125714;28;20244;-73
2023/07/02 02:46:13;;;;;;;13.02;5.80;;;;;;;16.83;100.00;93918.03;5101419;28;20198;-73
2023/07/02 02:48:40;;;;;;;10.10;4.43;;;;;;;16.78;100.00;93894.59;5112306;28;20634;-73
2023/07/02 02:51:07;;;;;;;11.95;5.70;;;;;;;16.79;100.00;93892.63;5113559;28;20202;-73
2023/07/02 02:53:33;;;;;;;10.77;5.78;;;;;;;16.83;100.00;93918.81;5121663;28;20255;-73
2023/07/02 02:56:00;;;;;;;8.13;4.93;;;;;;;16.80;100.00;93914.13;5105527;28;20213;-73
2023/07/02 02:58:28;;;;;;;8.85;5.10;;;;;;;16.76;100.00;93918.78;5108352;28;20225;-73
2023/07/02 03:00:54;;;;;;;11.82;5.22;;;;;;;16.83;100.00;93923.50;5121236;28;20683;-73
2023/07/02 03:03:24;;;;;;;10.88;5.50;;;;;;;16.82;100.00;93917.25;5120843;28;20202;-73
2023/07/02 03:05:51;;;;;;;11.98;6.32;;;;;;;16.88;100.00;93926.66;5117598;28;20242;-73
2023/07/02 03:08:17;;;;;;;9.93;5.15;;;;;;;16.87;100.00;93916.88;5121423;28;20209;-73
2023/07/02 03:10:44;;;;;;;10.55;5.20;;;;;;;16.93;100.00;93918.09;5124883;28;20562;-73
2023/07/02 03:13:11;;;;;;;12.70;6.18;;;;;;;16.95;100.00;93917.69;5105039;28;20279;-73
2023/07/02 03:15:38;;;;;;;11.05;5.50;;;;;;;17.09;100.00;93920.47;5108842;28;20519;-73
2023/07/02 03:18:05;;;;;;;10.38;5.93;;;;;;;17.23;100.00;93917.78;5126189;28;20235;-73
2023/07/02 03:20:33;;;;;;;11.50;5.55;;;;;;;17.33;100.00;93913.53;5115217;28;20292;-74
2023/07/02 03:23:00;;;;;;;12.55;6.47;;;;;;;17.46;100.00;93912.00;5113879;28;20231;-74
2023/07/02 03:25:27;;;;;;;8.98;5.05;;;;;;;17.56;100.00;93921.38;5119720;28;20288;-73
2023/07/02 03:27:53;;;;;;;10.90;5.80;;;;;;;17.66;100.00;93915.94;5118424;28;20213;-73
2023/07/02 03:30:20;;;;;;;10.65;5.60;;;;;;;17.76;100.00;93930.84;5108006;28;20583;-73
2023/07/02 03:32:47;;;;;;;10.77;5.50;;;;;;;17.65;100.00;93939.03;5115316;28;20250;-74
2023/07/02 03:35:14;;;;;;;11.10;5.00;;;;;;;17.64;100.00;93934.72;5122527;27;20197;-74
2023/07/02 03:37:43;;;;;;;10.25;5.22;;;;;;;17.64;100.00;93937.47;5108026;27;20199;-74
2023/07/02 03:40:10;;;;;;;8.02;4.72;;;;;;;17.60;100.00;93939.41;5115813;27;20229;-74
2023/07/02 03:42:37;;;;;;;7.80;4.82;;;;;;;17.84;100.00;93948.06;5104705;27;20230;-74
2023/07/02 03:45:04;;;;;;;9.63;5.50;;;;;;;17.82;100.00;93940.22;5123609;27;20198;-74
2023/07/02 03:47:31;;;;;;;12.35;5.18;;;;;;;18.05;100.00;93934.34;5112662;28;20251;-74
2023/07/02 03:49:58;;;;;;;15.10;5.32;;;;;;;18.01;100.00;93936.34;5112493;28;20198;-73
2023/07/02 03:52:25;;;;;;;12.85;6.10;;;;;;;18.02;100.00;93925.00;5125123;27;20193;-73
2023/07/02 03:54:53;;;;;;;9.90;4.78;;;;;;;18.01;100.00;93936.34;5118021;27;20205;-74
2023/07/02 03:57:20;;;;;;;11.40;4.72;;;;;;;18.32;100.00;93935.53;5119145;27;20200;-74
2023/07/02 03:59:47;;;;;;;9.27;5.25;;;;;;;18.30;100.00;93929.69;5122644;27;20233;-73
2023/07/02 04:02:14;;;;;;;11.30;5.65;;;;;;;18.43;100.00;93928.09;5125370;27;20197;-74
2023/07/02 04:04:41;;;;;;;10.80;5.85;;;;;;;18.74;100.00;93933.91;5112739;27;20209;-74
2023/07/02 04:07:08;;;;;;;9.70;5.47;;;;;;;18.78;100.00;93929.19;5120978;27;20197;-74
2023/07/02 04:09:34;;;;;;;13.02;5.75;;;;;;;18.70;100.00;93944.13;5112202;28;20197;-73
2023/07/02 04:12:03;;;;;;;7.78;4.65;;;;;;;18.54;100.00;93941.00;5113268;27;20213;-73
2023/07/02 04:14:29;;;;;;;9.48;4.65;;;;;;;18.59;100.00;93938.63;5114312;27;20231;-72
2023/07/02 04:16:56;;;;;;;7.53;4.68;;;;;;;18.45;100.00;93944.91;5116314;27;20273;-72
2023/07/02 04:19:23;;;;;;;11.70;5.03;;;;;;;18.36;100.00;93944.53;5125654;27;20233;-72
2023/07/02 04:21:50;;;;;;;9.73;5.40;;;;;;;18.44;100.00;93957.09;5106037;27;20666;-73
2023/07/02 04:24:17;;;;;;;12.57;5.47;;;;;;;18.42;100.00;93956.69;5111416;27;20205;-73
2023/07/02 04:26:44;;;;;;;8.50;5.15;;;;;;;18.43;100.00;93958.25;5123461;27;20666;-73
2023/07/02 04:29:12;;;;;;;7.28;4.70;;;;;;;18.35;100.00;93956.69;5124590;27;20197;-73
2023/07/02 04:31:39;;;;;;;11.50;5.35;;;;;;;18.14;100.00;93961.41;5111612;27;20577;-73
2023/07/02 04:34:06;;;;;;;12.32;5.25;;;;;;;18.08;100.00;93975.47;5123213;27;20204;-73
2023/07/02 04:36:33;;;;;;;10.07;5.22;;;;;;;18.00;100.00;93978.63;5128782;27;20201;-72
2023/07/02 04:39:00;;;;;;;9.95;4.90;;;;;;;18.02;100.00;93981.75;5113697;27;20704;-72
2023/07/02 04:41:27;;;;;;;11.05;4.93;;;;;;;18.02;100.00;93981.75;5108110;27;20251;-72
2023/07/02 04:43:54;;;;;;;11.38;5.47;;;;;;;18.17;100.00;93994.31;5126681;27;20231;-72
2023/07/02 04:46:23;;;;;;;11.38;5.07;;;;;;;18.25;100.00;93987.63;5103435;27;20207;-73
2023/07/02 04:48:49;;;;;;;8.85;4.85;;;;;;;18.23;100.00;93987.25;5112062;27;20212;-73
2023/07/02 04:51:16;;;;;;;10.10;5.45;;;;;;;18.14;100.00;94000.56;5109562;27;20638;-72
2023/07/02 04:53:43;;;;;;;11.50;5.28;;;;;;;18.10;100.00;93994.28;5109089;27;20569;-73
2023/07/02 04:56:10;;;;;;;8.55;5.20;;;;;;;18.25;100.00;93998.59;5102105;28;20197;-73
2023/07/02 04:58:36;;;;;;;11.20;6.05;;;;;;;18.21;100.00;94010.72;5103200;27;20218;-73
2023/07/02 05:01:04;;;;;;;9.73;5.68;;;;;;;18.18;100.00;94004.06;5107085;27;20197;-73
2023/07/02 05:03:32;;;;;;;10.27;5.88;;;;;;;18.31;100.00;94002.50;5103494;27;20270;-73
2023/07/02 05:05:59;;;;;;;13.77;7.05;;;;;;;18.50;100.00;94003.28;5107653;27;20197;-72
2023/07/02 05:08:26;;;;;;;16.00;7.15;;;;;;;18.60;100.00;94005.25;5106928;27;20714;-74
2023/07/02 05:10:53;;;;;;;11.70;6.85;;;;;;;18.63;100.00;94005.28;5101978;27;20247;-73
2023/07/02 05:13:19;;;;;;;14.23;7.72;;;;;;;18.82;99.72;94006.81;5099067;28;20610;-73
2023/07/02 05:15:46;;;;;;;17.48;7.70;;;;;;;18.87;99.40;94009.16;5108127;27;20193;-73
2023/07/02 05:18:13;;;;;;;11.85;6.75;;;;;;;18.82;100.00;94006.81;5106262;28;20225;-73
2023/07/02 05:20:42;;;;;;;22.27;7.43;;;;;;;18.98;100.00;94015.41;5097290;28;20233;-73
2023/07/02 05:23:09;;;;;;;13.50;8.15;;;;;;;19.05;98.39;94020.88;5122770;27;20200;-73
2023/07/02 05:25:35;;;;;;;13.23;7.28;;;;;;;19.14;96.77;94010.25;5126039;27;20243;-73
2023/07/02 05:28:02;;;;;;;12.40;6.68;;;;;;;18.95;99.24;94010.72;5122858;27;20197;-73
2023/07/02 05:30:29;;;;;;;12.68;6.28;;;;;;;18.91;97.68;94009.16;5111807;28;20194;-74
2023/07/02 05:32:56;;;;;;;16.38;6.72;;;;;;;18.72;100.00;94013.88;5122913;27;20664;-72
2023/07/02 05:35:22;;;;;;;9.90;5.47;;;;;;;18.60;100.00;94019.75;5124456;27;20232;-74
2023/07/02 05:37:50;;;;;;;14.05;6.35;;;;;;;18.53;100.00;94010.75;5123435;27;20208;-74
2023/07/02 05:40:17;;;;;;;15.38;6.75;;;;;;;18.51;100.00;94007.59;5117082;27;20225;-75
2023/07/02 05:42:44;;;;;;;10.60;6.30;;;;;;;18.61;100.00;94017.81;5117076;27;20288;-74
2023/07/02 05:45:11;;;;;;;15.52;5.93;;;;;;;18.79;100.00;94018.59;5116192;27;20199;-74
2023/07/02 05:47:38;;;;;;;13.90;7.88;;;;;;;19.16;100.00;94013.38;5116131;27;20257;-74
2023/07/02 05:50:06;;;;;;;14.25;6.15;;;;;;;19.29;97.36;94018.44;5123710;27;20202;-74
2023/07/02 05:52:33;;;;;;;13.73;6.07;;;;;;;19.37;95.76;94020.78;5123412;27;20220;-73
2023/07/02 05:55:01;;;;;;;12.75;6.10;;;;;;;19.59;95.47;94021.50;5124028;27;20546;-72
2023/07/02 05:57:28;;;;;;;18.02;6.82;;;;;;;19.87;93.61;94015.09;5122459;27;20663;-71
2023/07/02 05:59:55;;;;;;;11.23;6.13;;;;;;;20.09;93.65;94013.75;5100513;28;20782;-71
2023/07/02 06:02:21;;;;;;;16.00;6.95;;;;;;;20.06;92.90;94011.06;5123906;27;20197;-72
2023/07/02 06:04:48;;;;;;;11.10;5.93;;;;;;;19.94;94.57;94011.53;5116766;27;20622;-72
2023/07/02 06:07:15;;;;;;;11.75;6.45;;;;;;;20.26;92.44;94001.06;5116654;27;20201;-70
2023/07/02 06:09:42;;;;;;;13.05;7.70;;;;;;;20.98;88.11;93993.78;5123884;27;20262;-71
2023/07/02 06:12:10;;;;;;;13.98;6.47;;;;;;;22.38;82.87;93990.84;5124004;27;20197;-72
2023/07/02 06:14:37;;;;;;;10.85;5.50;;;;;;;23.64;76.08;93986.25;5117098;27;20660;-72
2023/07/02 06:17:06;;;;;;;12.13;6.10;;;;;;;23.25;73.19;93990.50;5116224;27;20216;-73
2023/07/02 06:19:33;;;;;;;12.10;5.72;;;;;;;22.14;74.50;93990.03;5122799;27;20595;-73
2023/07/02 06:22:00;;;;;;;10.05;5.15;;;;;;;21.55;76.51;93995.94;5123546;28;20542;-73
2023/07/02 06:24:26;;;;;;;11.95;5.50;;;;;;;21.28;80.19;93988.38;5118133;28;20216;-72
2023/07/02 06:26:53;;;;;;;10.88;5.38;;;;;;;;;;5114294;28;20205;-72
2023/07/02 06:29:22;;;;;;;12.75;5.55;;;;;;;22.16;77.82;93982.09;5097890;28;20205;-73
2023/07/02 06:31:49;;;;;;;11.27;7.03;;;;;;;22.38;75.04;93986.09;5123386;28;20204;-74
2023/07/02 06:34:16;;;;;;;10.68;7.03;;;;;;;22.41;75.30;93977.00;5118387;28;20200;-74
2023/07/02 06:36:43;;;;;;;10.75;7.43;;;;;;;22.85;73.88;93972.31;5116271;28;20209;-71
2023/07/02 06:39:10;;;;;;;11.93;6.93;;;;;;;22.88;73.77;93979.75;5121169;28;20221;-71
2023/07/02 06:41:37;;;;;;;10.80;5.63;;;;;;;22.85;73.91;93983.38;5123343;28;20661;-72
2023/07/02 06:44:04;;;;;;;13.30;5.53;;;;;;;22.57;72.76;93979.88;5118249;28;20228;-73
2023/07/02 06:46:33;;;;;;;11.90;5.93;;;;;;;21.90;75.58;93981.66;5110225;28;20202;-73
2023/07/02 06:49:00;;;;;;;15.00;6.57;;;;;;;22.34;75.23;93977.09;5120300;28;20197;-76
2023/07/02 06:51:29;;;;;;;11.15;5.75;;;;;;;22.45;76.26;93977.69;5113010;28;20206;-75
2023/07/02 06:53:56;;;;;;;11.27;7.55;;;;;;;22.52;75.22;93971.28;5110000;28;20344;-73
2023/07/02 06:56:23;;;;;;;12.05;7.88;;;;;;;22.36;76.38;93977.47;5123324;28;20206;-74
2023/07/02 06:58:50;;;;;;;12.60;7.63;;;;;;;22.34;77.31;93971.56;5115438;28;20198;-73
2023/07/02 07:01:16;;;;;;;13.23;7.78;;;;;;;22.04;77.49;93979.91;5123546;28;20642;-73
2023/07/02 07:03:44;;;;;;;11.05;7.68;;;;;;;21.83;77.29;93987.28;5121041;28;20729;-72
2023/07/02 07:06:12;;;;;;;13.55;7.70;;;;;;;21.63;77.58;93994.63;5115470;28;20205;-71
2023/07/02 07:08:39;;;;;;;13.15;7.13;;;;;;;22.43;77.04;93985.63;5117797;28;20201;-73
2023/07/02 07:11:06;;;;;;;14.60;7.78;;;;;;;22.42;73.25;93989.56;5126079;27;20251;-75
2023/07/02 07:13:33;;;;;;;11.50;5.82;;;;;;;22.38;73.16;93991.63;5124559;27;20288;-73
2023/07/02 07:16:00;;;;;;;8.48;5.50;;;;;;;22.69;72.44;93998.59;5109923;27;20206;-72
2023/07/02 07:18:26;;;;;;;15.48;7.55;;;;;;;22.99;71.32;93989.41;5104514;28;20611;-73
2023/07/02 07:20:55;;;;;;;10.65;6.80;;;;;;;23.48;69.96;93988.91;5099033;28;20251;-72
2023/07/02 07:23:22;;;;;;;13.88;7.25;;;;;;;24.46;66.61;93982.47;5112767;28;20235;-72
2023/07/02 07:25:49;;;;;;;11.50;5.63;;;;;;;24.76;66.16;93979.31;5127026;27;20224;-73
2023/07/02 07:28:16;;;;;;;12.35;5.95;;;;;;;25.34;64.13;93984.97;5125853;27;20205;-72
2023/07/02 07:30:43;;;;;;;10.48;5.22;;;;;;;24.85;64.35;93980.72;5120198;27;20228;-72
2023/07/02 07:33:11;;;;;;;13.63;5.30;;;;;;;24.84;65.32;93973.59;5120989;27;20274;-73
2023/07/02 07:35:38;;;;;;;9.60;5.20;;;;;;;24.60;65.77;93976.53;5126635;27;20247;-74
2023/07/02 07:38:06;;;;;;;10.07;5.03;;;;;;;25.48;63.13;93967.91;5126577;27;20203;-74
2023/07/02 07:40:33;;;;;;;8.65;5.25;;;;;;;24.66;63.58;93974.81;5106011;27;20289;-73
2023/07/02 07:43:00;;;;;;;12.05;6.85;;;;;;;24.75;64.77;93971.44;5120139;27;20279;-74
2023/07/02 07:45:27;;;;;;;7.60;4.60;;;;;;;24.94;64.48;93967.03;5102909;28;20223;-72
2023/07/02 07:47:53;;;;;;;9.35;4.88;;;;;;;25.28;62.81;93974.84;5126550;27;20750;-74
2023/07/02 07:50:20;;;;;;;10.25;4.88;;;;;;;25.72;61.24;93981.53;5115798;27;20247;-74
2023/07/02 07:52:47;;;;;;;14.13;8.55;;;;;;;26.10;60.47;93968.50;5126562;27;20204;-74
2023/07/02 07:55:15;;;;;;;10.63;6.35;;;;;;;25.77;59.80;93973.47;5120855;27;20321;-74
2023/07/02 07:57:42;;;;;;;10.13;6.18;;;;;;;25.08;62.00;93984.06;5119503;27;20206;-74
2023/07/02 08:00:10;;;;;;;10.18;6.40;;;;;;;26.54;59.58;93969.53;5121227;27;20224;-74
2023/07/02 08:02:37;;;;;;;10.40;6.53;;;;;;;26.62;57.67;93975.66;5126429;27;20295;-74
2023/07/02 08:05:05;;;;;;;10.50;7.13;;;;;;;27.25;58.02;93974.72;5121912;27;20605;-73
2023/07/02 08:07:32;;;;;;;8.32;5.57;;;;;;;27.75;57.00;93976.53;5110193;27;20209;-75
2023/07/02 08:10:00;;;;;;;11.18;6.10;;;;;;;28.89;52.81;93972.91;5115981;27;20194;-74
2023/07/02 08:12:29;;;;;;;8.63;6.00;;;;;;;28.03;53.37;93985.81;5126207;27;20205;-74
2023/07/02 08:14:56;;;;;;;9.80;6.32;;;;;;;28.35;53.16;93973.47;5101990;28;20202;-76
2023/07/02 08:17:22;;;;;;;9.43;6.00;;;;;;;27.74;54.35;93985.34;5106821;27;20214;-76
2023/07/02 08:19:49;;;;;;;9.60;5.93;;;;;;;28.99;53.76;93966.09;5095332;28;20787;-73
2023/07/02 08:22:16;;;;;;;8.88;5.43;;;;;;;27.55;53.93;93979.63;5110052;28;20606;-74
2023/07/02 08:24:43;;;;;;;10.90;6.68;;;;;;;25.96;58.48;93980.06;5121636;27;20698;-74
2023/07/02 08:27:10;;;;;;;9.02;6.28;;;;;;;25.59;59.88;93983.47;5096141;27;20210;-75
2023/07/02 08:29:38;;;;;;;9.02;5.88;;;;;;;26.20;58.04;93978.53;5102385;28;20255;-74
2023/07/02 08:32:05;;;;;;;12.02;5.40;;;;;;;25.96;58.83;93980.06;5115452;27;20296;-74
2023/07/02 08:34:32;;;;;;;7.45;5.40;;;;;;;25.85;58.53;93979.56;5108043;27;20259;-75
2023/07/02 08:36:59;;;;;;;9.65;5.53;;;;;;;25.47;59.71;93971.91;5090434;28;20634;-74
2023/07/02 08:39:26;;;;;;;7.97;5.82;;;;;;;25.52;60.84;93980.91;5101822;28;20656;-74
2023/07/02 08:41:53;;;;;;;9.93;6.50;;;;;;;25.37;61.75;93978.53;5109139;28;20213;-73
2023/07/02 08:44:21;;;;;;;8.23;5.40;;;;;;;25.33;61.90;93971.53;5105158;28;20225;-75
2023/07/02 08:46:50;;;;;;;9.13;6.55;;;;;;;24.93;62.92;93982.06;5097621;28;20208;-76
2023/07/02 08:49:17;;;;;;;10.23;5.93;;;;;;;24.85;61.38;93984.25;5110854;28;20197;-74
2023/07/02 08:51:47;;;;;;;7.07;5.30;;;;;;;25.50;59.47;93971.03;5110257;28;20200;-73
2023/07/02 08:54:15;;;;;;;11.10;5.72;;;;;;;26.54;57.54;93969.53;5121673;27;20197;-74
2023/07/02 08:56:42;;;;;;;8.23;5.47;;;;;;;27.36;56.44;93966.78;5090061;28;20653;-75
2023/07/02 08:59:08;;;;;;;7.53;5.10;;;;;;;27.72;55.14;93976.66;5101783;28;20198;-74
2023/07/02 09:01:46;;;;;;;7.95;5.80;;;;;;;27.20;56.77;93959.38;5094543;28;21019;-74
2023/07/02 09:04:21;;;;;;;10.10;6.40;;;;;;;26.35;57.86;93972.56;5109494;28;20266;-75
2023/07/02 09:06:48;;;;;;;9.00;5.80;;;;;;;26.41;58.01;93965.19;5109885;28;20239;-73
2023/07/02 09:09:15;;;;;;;9.82;5.95;;;;;;;26.97;56.75;93961.81;5106644;28;20194;-76
2023/07/02 09:11:50;;;;;;;9.00;5.53;;;;;;;27.10;54.75;93968.09;5108016;28;20190;-74
2023/07/02 09:14:29;;;;;;;8.73;5.85;;;;;;;26.33;57.75;93959.09;5106796;28;20700;-75
2023/07/02 09:17:07;;;;;;;8.95;4.63;;;;;;;28.18;52.87;93959.00;5107187;28;20286;-74
2023/07/02 09:19:35;;;;;;;8.85;5.60;;;;;;;28.99;53.47;93960.53;5104672;28;20197;-75
2023/07/02 09:22:03;;;;;;;7.72;5.00;;;;;;;28.70;50.11;93951.75;5108587;28;20225;-73
2023/07/02 09:24:31;;;;;;;7.00;4.40;;;;;;;27.46;51.81;93970.44;5107907;28;20213;-75
2023/07/02 09:27:00;;;;;;;7.68;4.90;;;;;;;27.40;55.85;93959.09;5104362;28;20288;-74
2023/07/02 09:29:29;;;;;;;7.90;5.70;;;;;;;28.11;53.00;93961.28;5107595;28;20735;-74
2023/07/02 09:31:57;;;;;;;8.07;5.45;;;;;;;28.23;53.00;93964.00;5110075;28;20202;-75
2023/07/02 09:34:29;;;;;;;6.80;4.72;;;;;;;29.06;49.29;93953.09;5120673;27;20295;-74
2023/07/02 09:36:58;;;;;;;7.45;5.57;;;;;;;29.09;49.57;93941.03;5112485;27;20630;-74
2023/07/02 09:39:29;;;;;;;8.02;5.75;;;;;;;28.31;51.50;93950.53;5109965;28;20251;-74
2023/07/02 09:41:57;;;;;;;7.95;4.95;;;;;;;28.98;51.36;93947.81;5115561;27;20229;-74
2023/07/02 09:44:28;;;;;;;7.07;5.22;;;;;;;28.56;49.26;93955.16;5107292;27;20630;-75
2023/07/02 09:47:02;;;;;;;7.68;5.30;;;;;;;29.28;50.51;93948.16;5110161;28;20284;-74
2023/07/02 09:49:33;;;;;;;8.15;5.28;;;;;;;29.24;50.01;93941.97;5109802;28;20220;-75
2023/07/02 09:52:03;;;;;;;8.98;5.53;;;;;;;28.78;51.89;93944.66;5109727;28;20209;-73
2023/07/02 09:54:30;;;;;;;8.20;5.97;;;;;;;28.54;50.55;93946.47;5095980;28;20210;-73
2023/07/02 09:56:57;;;;;;;7.93;5.35;;;;;;;28.68;51.50;93945.88;5109927;28;20292;-73
2023/07/02 09:59:24;;;;;;;9.98;5.10;;;;;;;28.56;52.05;93949.56;5107085;28;20218;-74
2023/07/02 10:01:52;;;;;;;7.55;5.13;;;;;;;28.58;52.21;93947.06;5089258;28;20596;-75
2023/07/02 10:04:20;;;;;;;10.13;5.03;;;;;;;28.81;52.39;93938.19;5089537;28;20260;-74
2023/07/02 10:06:48;;;;;;;8.15;4.90;;;;;;;28.54;53.58;93940.88;5089297;28;20202;-74
2023/07/02 10:09:17;;;;;;;9.90;5.40;;;;;;;28.36;52.63;93940.81;5106078;28;20671;-74
2023/07/02 10:11:44;;;;;;;8.80;5.60;;;;;;;27.82;52.84;93942.09;5109302;28;20668;-75
2023/07/02 10:14:11;;;;;;;8.88;6.05;;;;;;;26.92;55.80;93940.91;5109432;28;20384;-75
2023/07/02 10:16:50;;;;;;;8.30;6.00;;;;;;;27.08;55.70;93939.97;5109552;28;20229;-75
2023/07/02 10:19:17;;;;;;;7.18;5.60;;;;;;;27.17;55.12;93937.28;5110037;28;20284;-74
2023/07/02 10:21:45;;;;;;;7.78;5.88;;;;;;;27.14;55.59;93927.06;5099066;28;20233;-75
2023/07/02 10:24:13;;;;;;;7.13;4.88;;;;;;;26.72;56.19;93924.47;5108191;28;20198;-75
2023/07/02 10:26:52;;;;;;;9.43;5.20;;;;;;;26.52;57.22;93915.63;5107195;28;20613;-74
2023/07/02 10:29:20;;;;;;;7.88;5.70;;;;;;;26.46;58.78;93911.88;5108633;28;20290;-74
2023/07/02 10:31:49;;;;;;;9.10;5.30;;;;;;;26.59;55.80;93912.63;5108123;28;20201;-74
2023/07/02 10:34:16;;;;;;;8.30;5.50;;;;;;;26.36;56.86;93901.91;5109052;28;20205;-74
2023/07/02 10:36:43;;;;;;;7.63;5.20;;;;;;;26.17;57.13;93912.75;5108817;28;20213;-74
2023/07/02 10:39:10;;;;;;;7.07;5.05;;;;;;;26.19;56.82;93910.31;5109373;28;20290;-76
2023/07/02 10:41:37;;;;;;;6.47;4.45;;;;;;;26.22;55.99;93907.88;5109103;28;20237;-74
2023/07/02 10:44:08;;;;;;;6.53;4.75;;;;;;;26.58;55.74;93905.50;5109410;28;20241;-75
2023/07/02 10:46:36;;;;;;;6.47;4.32;;;;;;;27.34;53.90;93902.47;5114221;27;20273;-74
2023/07/02 10:49:02;;;;;;;6.68;4.53;;;;;;;27.49;53.17;93908.28;5122048;27;20292;-74
2023/07/02 10:51:29;;;;;;;10.32;5.03;;;;;;;27.58;53.14;93900.81;5126884;27;20596;-75
2023/07/02 10:54:00;;;;;;;6.70;4.22;;;;;;;27.10;54.31;93904.16;5113295;28;20210;-74
2023/07/02 10:56:27;;;;;;;6.00;4.78;;;;;;;27.25;53.10;93899.63;5112859;28;20552;-75
2023/07/02 10:58:54;;;;;;;6.45;5.00;;;;;;;27.55;52.88;93901.69;5113006;28;20209;-74
2023/07/02 11:01:28;;;;;;;7.25;4.40;;;;;;;28.31;50.05;93883.69;5093979;28;20233;-76
2023/07/02 11:04:00;;;;;;;6.20;4.35;;;;;;;28.54;51.25;93890.72;5106093;28;20258;-77
2023/07/02 11:06:27;;;;;;;5.68;4.57;;;;;;;28.50;50.60;93890.09;5112893;28;20204;-80
2023/07/02 11:08:55;;;;;;;7.40;4.82;;;;;;;28.96;48.57;93888.94;5113640;28;20399;-80
2023/07/02 11:11:22;;;;;;;6.47;4.72;;;;;;;29.10;46.65;93890.34;5112432;28;20209;-77
2023/07/02 11:13:51;;;;;;;6.10;4.63;;;;;;;30.00;45.79;93879.53;5112611;28;20292;-75
2023/07/02 11:16:20;;;;;;;9.50;4.72;;;;;;;30.84;45.15;93884.25;5111813;28;20235;-75
2023/07/02 11:18:48;;;;;;;7.40;4.80;;;;;;;30.11;45.58;93879.78;5103947;28;20293;-75
2023/07/02 11:21:14;;;;;;;6.18;4.80;;;;;;;29.30;46.46;93884.28;5120331;27;20233;-76
2023/07/02 11:23:42;;;;;;;7.22;4.68;;;;;;;28.93;48.29;93889.88;5102858;27;20202;-77
2023/07/02 11:26:09;;;;;;;6.28;4.70;;;;;;;29.66;46.04;93878.66;5099527;28;20198;-78
2023/07/02 11:28:36;;;;;;;7.43;5.25;;;;;;;30.44;45.30;93879.03;5112341;28;20656;-75